Time;durP1;ratioP1;P1;durP2;ratioP2;P2;SDS_P1;SDS_P2;PMS_P1;PMS_P2;Temp;Humidity;BMP_temperature;BMP_pressure;BME280_temperature;BME280_humidity;BME280_pressure;Samples;Min_cycle;Max_cycle;Signal;HPM_P1;HPM_P2
2021/10/15 00:00:16;;;;;;;3.55;2.30;;;;;;;;;;5018328;28;20077;-87
2021/10/15 00:02:43;;;;;;;4.72;2.30;;;;;;;;;;5037365;28;20049;-87
2021/10/15 00:05:10;;;;;;;4.32;2.72;;;;;;;;;;5037561;28;20048;-87
2021/10/15 00:07:38;;;;;;;3.85;2.28;;;;;;;;;;5038489;28;20118;-87
2021/10/15 00:10:06;;;;;;;3.90;2.30;;;;;;;;;;5031561;28;20041;-87
2021/10/15 00:12:33;;;;;;;3.25;1.83;;;;;;;;;;5035044;28;20514;-87
2021/10/15 00:14:59;;;;;;;3.83;2.30;;;;;;;;;;5034445;28;20050;-87
2021/10/15 00:17:26;;;;;;;5.20;2.38;;;;;;;;;;5033067;28;20517;-87
2021/10/15 00:19:53;;;;;;;5.35;2.00;;;;;;;;;;5033787;28;20053;-86
2021/10/15 00:22:20;;;;;;;5.40;2.55;;;;;;;;;;5017166;28;20046;-87
2021/10/15 00:24:48;;;;;;;5.15;2.10;;;;;;;;;;5033848;28;20061;-87
2021/10/15 00:27:14;;;;;;;4.10;2.15;;;;;;;;;;5034675;28;20044;-87
2021/10/15 00:29:41;;;;;;;4.00;2.22;;;;;;;;;;5032941;28;20041;-86
2021/10/15 00:32:08;;;;;;;4.18;2.40;;;;;;;;;;5029362;28;20414;-87
2021/10/15 00:34:35;;;;;;;3.40;2.00;;;;;;;;;;5033682;28;20053;-86
2021/10/15 00:37:02;;;;;;;3.85;2.10;;;;;;;;;;5032573;28;20475;-86
2021/10/15 00:39:31;;;;;;;3.92;2.20;;;;;;;;;;5034125;28;20045;-87
2021/10/15 00:41:59;;;;;;;4.28;2.03;;;;;;;;;;5032845;28;20052;-87
2021/10/15 00:44:25;;;;;;;4.68;2.30;;;;;;;;;;5031940;28;20052;-87
2021/10/15 00:46:52;;;;;;;3.65;2.28;;;;;;;;;;5032204;28;20041;-87
2021/10/15 00:49:19;;;;;;;4.57;2.42;;;;;;;;;;5030485;28;20045;-88
2021/10/15 00:51:46;;;;;;;3.17;1.98;;;;;;;;;;5033552;28;20045;-87
2021/10/15 00:54:14;;;;;;;4.78;2.45;;;;;;;;;;5036233;28;20498;-86
2021/10/15 00:56:42;;;;;;;5.18;3.03;;;;;;;;;;5036964;28;20041;-86
2021/10/15 00:59:11;;;;;;;4.15;2.15;;;;;;;;;;5037491;28;20053;-87
2021/10/15 01:04:14;;;;;;;6.28;2.80;;;;;;;;;;5057267;28;20182;-80
2021/10/15 01:06:40;;;;;;;5.10;2.65;;;;;;;;;;5059343;28;20056;-81
2021/10/15 01:09:07;;;;;;;3.90;2.13;;;;;;;;;;5058508;28;20049;-81
2021/10/15 01:11:34;;;;;;;5.15;2.47;;;;;;;;;;5058805;28;20045;-81
2021/10/15 01:14:00;;;;;;;4.68;2.60;;;;;;;;;;5058721;28;20486;-81
2021/10/15 01:16:30;;;;;;;4.25;2.55;;;;;;;;;;5046847;28;20509;-82
2021/10/15 01:18:57;;;;;;;3.50;2.17;;;;;;;;;;5057370;28;20137;-82
2021/10/15 01:21:26;;;;;;;5.47;2.67;;;;;;;;;;5058702;28;20099;-82
2021/10/15 01:23:52;;;;;;;5.28;2.78;;;;;;;;;;5064899;28;20053;-82
2021/10/15 01:26:19;;;;;;;5.70;2.60;;;;;;;;;;5063352;28;20044;-83
2021/10/15 01:28:45;;;;;;;5.18;2.72;;;;;;;;;;5062408;28;20040;-83
2021/10/15 01:31:12;;;;;;;3.95;2.60;;;;;;;;;;5060936;28;20084;-83
2021/10/15 01:33:39;;;;;;;5.05;2.20;;;;;;;;;;5061803;28;20045;-83
2021/10/15 01:36:06;;;;;;;4.55;3.08;;;;;;;;;;5057919;28;20052;-83
2021/10/15 01:38:36;;;;;;;4.72;2.45;;;;;;;;;;5058766;28;20057;-83
2021/10/15 01:41:03;;;;;;;3.75;2.40;;;;;;;;;;5060236;28;20045;-82
2021/10/15 01:43:30;;;;;;;7.38;2.90;;;;;;;;;;5051188;28;20045;-82
2021/10/15 01:45:57;;;;;;;6.63;3.05;;;;;;;;;;5057476;28;20517;-82
2021/10/15 01:48:24;;;;;;;5.65;2.70;;;;;;;;;;5056547;28;20052;-82
2021/10/15 01:50:51;;;;;;;5.68;2.42;;;;;;;;;;5064495;28;20052;-83
2021/10/15 01:53:18;;;;;;;5.05;2.95;;;;;;;;;;5060870;28;20048;-83
2021/10/15 01:55:47;;;;;;;4.63;2.33;;;;;;;;;;5062990;28;20052;-83
2021/10/15 01:58:13;;;;;;;4.03;2.33;;;;;;;;;;5061933;28;20472;-83
2021/10/15 02:00:40;;;;;;;5.18;3.00;;;;;;;;;;5061255;28;20056;-83
2021/10/15 02:03:07;;;;;;;3.80;2.40;;;;;;;;;;5059218;28;20056;-83
2021/10/15 02:05:34;;;;;;;4.80;2.45;;;;;;;;;;5059390;28;20106;-82
2021/10/15 02:08:01;;;;;;;6.53;3.08;;;;;;;;;;5052778;28;20045;-82
2021/10/15 02:10:27;;;;;;;5.20;2.97;;;;;;;;;;5060556;28;20815;-83
2021/10/15 02:12:55;;;;;;;5.47;2.47;;;;;;;;;;5059130;28;20048;-82
2021/10/15 02:15:23;;;;;;;6.22;2.20;;;;;;;;;;5060376;28;20453;-83
2021/10/15 02:17:50;;;;;;;4.63;2.65;;;;;;;;;;5060842;28;20102;-83
2021/10/15 02:20:17;;;;;;;4.30;2.33;;;;;;;;;;5059597;28;20056;-83
2021/10/15 02:22:45;;;;;;;4.75;2.05;;;;;;;;;;5059655;28;20044;-83
2021/10/15 02:25:16;;;;;;;5.53;2.53;;;;;;;;;;5059560;28;20048;-84
2021/10/15 02:27:43;;;;;;;4.13;2.25;;;;;;;;;;5058421;28;20045;-81
2021/10/15 02:30:13;;;;;;;5.60;3.08;;;;;;;;;;5057987;28;20048;-81
2021/10/15 02:32:39;;;;;;;6.07;3.45;;;;;;;;;;5059013;28;20045;-81
2021/10/15 02:35:07;;;;;;;7.35;3.60;;;;;;;;;;5058776;28;20040;-82
2021/10/15 02:37:47;;;;;;;5.88;3.08;;;;;;;;;;5059044;28;20060;-82
2021/10/15 02:40:15;;;;;;;4.80;2.60;;;;;;;;;;5055533;28;20052;-82
2021/10/15 02:42:42;;;;;;;6.68;2.80;;;;;;;;;;5058772;28;20044;-82
2021/10/15 02:45:11;;;;;;;4.90;2.80;;;;;;;;;;5054419;28;20045;-82
2021/10/15 02:47:40;;;;;;;6.30;3.58;;;;;;;;;;5057137;28;20125;-82
2021/10/15 02:50:08;;;;;;;4.95;2.72;;;;;;;;;;5058148;28;20565;-82
2021/10/15 02:52:34;;;;;;;6.28;2.92;;;;;;;;;;5058430;28;20545;-82
2021/10/15 02:55:01;;;;;;;5.45;2.67;;;;;;;;;;5055963;28;20041;-82
2021/10/15 02:57:27;;;;;;;4.35;2.50;;;;;;;;;;5057559;28;20049;-82
2021/10/15 02:59:54;;;;;;;6.50;3.17;;;;;;;;;;5056020;28;20575;-82
2021/10/15 03:02:22;;;;;;;5.00;2.92;;;;;;;;;;5052444;28;20145;-81
2021/10/15 03:04:48;;;;;;;6.00;3.20;;;;;;;;;;5052409;28;20045;-81
2021/10/15 03:07:15;;;;;;;5.60;2.72;;;;;;;;;;5056870;28;20041;-82
2021/10/15 03:09:42;;;;;;;4.90;2.83;;;;;;;;;;5056117;28;20044;-82
2021/10/15 03:12:08;;;;;;;5.55;3.10;;;;;;;;;;5056968;28;20045;-82
2021/10/15 03:14:35;;;;;;;5.90;2.55;;;;;;;;;;5056353;28;20099;-82
2021/10/15 03:17:08;;;;;;;7.20;3.13;;;;;;;;;;5056681;28;20049;-82
2021/10/15 03:19:36;;;;;;;6.32;3.20;;;;;;;;;;5056277;28;20049;-82
2021/10/15 03:22:02;;;;;;;6.38;3.22;;;;;;;;;;5056823;28;20079;-82
2021/10/15 03:24:29;;;;;;;5.32;2.75;;;;;;;;;;5056387;28;21777;-82
2021/10/15 03:26:56;;;;;;;7.53;3.03;;;;;;;;;;5056696;28;20051;-82
2021/10/15 03:29:22;;;;;;;5.35;2.75;;;;;;;;;;5057631;28;20045;-82
2021/10/15 03:31:48;;;;;;;5.63;3.38;;;;;;;;;;5057316;28;20045;-82
2021/10/15 03:34:15;;;;;;;7.38;3.35;;;;;;;;;;5056763;28;20697;-82
2021/10/15 03:36:43;;;;;;;7.82;3.72;;;;;;;;;;5056575;28;20049;-82
2021/10/15 03:39:11;;;;;;;4.90;3.00;;;;;;;;;;5055102;28;20060;-82
2021/10/15 03:41:38;;;;;;;6.60;3.20;;;;;;;;;;5055873;28;20047;-83
2021/10/15 03:44:05;;;;;;;5.05;2.70;;;;;;;;;;5055842;28;20076;-83
2021/10/15 03:46:31;;;;;;;6.25;3.05;;;;;;;;;;5055899;28;20098;-83
2021/10/15 03:48:59;;;;;;;5.13;2.85;;;;;;;;;;5058905;28;20041;-82
2021/10/15 03:51:25;;;;;;;5.80;3.05;;;;;;;;;;5055559;28;20465;-83
2021/10/15 03:53:53;;;;;;;6.28;2.60;;;;;;;;;;5037304;28;20049;-83
2021/10/15 03:56:20;;;;;;;5.75;2.80;;;;;;;;;;5053831;28;20124;-82
2021/10/15 03:58:46;;;;;;;4.68;2.40;;;;;;;;;;5054537;28;20063;-83
2021/10/15 04:01:13;;;;;;;4.18;2.47;;;;;;;;;;5054732;28;20171;-83
2021/10/15 04:03:39;;;;;;;4.63;2.80;;;;;;;;;;5052651;28;20442;-83
2021/10/15 04:06:06;;;;;;;6.85;2.90;;;;;;;;;;5055126;28;20482;-82
2021/10/15 04:08:32;;;;;;;4.70;2.88;;;;;;;;;;5055729;28;20497;-83
2021/10/15 04:11:03;;;;;;;5.00;2.90;;;;;;;;;;5055861;28;20041;-83
2021/10/15 04:13:29;;;;;;;5.78;2.88;;;;;;;;;;5055602;28;20452;-83
2021/10/15 04:16:00;;;;;;;5.43;2.47;;;;;;;;;;5056823;28;20044;-83
2021/10/15 04:18:26;;;;;;;4.55;2.63;;;;;;;;;;5050968;28;20136;-83
2021/10/15 04:20:53;;;;;;;5.47;2.75;;;;;;;;;;5056624;28;20055;-84
2021/10/15 04:23:19;;;;;;;5.68;3.00;;;;;;;;;;5056905;28;20045;-83
2021/10/15 04:25:46;;;;;;;12.98;4.85;;;;;;;;;;5056749;28;20045;-83
2021/10/15 04:28:16;;;;;;;6.03;2.88;;;;;;;;;;5052751;28;20068;-82
2021/10/15 04:30:42;;;;;;;5.75;2.97;;;;;;;;;;5056170;28;20052;-81
2021/10/15 04:33:08;;;;;;;5.25;2.67;;;;;;;;;;5055810;28;20045;-81
2021/10/15 04:35:35;;;;;;;6.30;3.05;;;;;;;;;;5056015;28;20044;-82
2021/10/15 04:38:01;;;;;;;6.85;3.00;;;;;;;;;;5054167;28;20045;-82
2021/10/15 04:40:28;;;;;;;7.35;2.88;;;;;;;;;;5055231;28;20087;-82
2021/10/15 04:42:57;;;;;;;5.25;3.08;;;;;;;;;;5053516;28;20110;-82
2021/10/15 04:45:25;;;;;;;5.70;2.65;;;;;;;;;;5040458;28;20529;-82
2021/10/15 04:47:52;;;;;;;6.32;3.10;;;;;;;;;;5055386;28;20041;-82
2021/10/15 04:50:18;;;;;;;7.13;3.15;;;;;;;;;;5055143;28;20053;-82
2021/10/15 04:52:45;;;;;;;5.68;3.40;;;;;;;;;;5054526;28;20045;-81
2021/10/15 04:55:12;;;;;;;7.65;3.33;;;;;;;;;;5054002;28;20041;-81
2021/10/15 04:57:41;;;;;;;5.80;3.38;;;;;;;;;;5058239;28;20052;-81
2021/10/15 05:00:09;;;;;;;7.03;3.67;;;;;;;;;;5056842;28;20385;-81
2021/10/15 05:02:41;;;;;;;5.22;3.00;;;;;;;;;;5055627;28;20119;-80
2021/10/15 05:05:08;;;;;;;7.43;3.13;;;;;;;;;;5075915;28;20056;-81
2021/10/15 05:07:35;;;;;;;6.55;2.67;;;;;;;;;;5076832;28;20055;-81
2021/10/15 05:10:02;;;;;;;5.03;2.65;;;;;;;;;;5060891;28;20040;-81
2021/10/15 05:12:28;;;;;;;6.20;2.60;;;;;;;;;;5055153;28;20045;-80
2021/10/15 05:14:55;;;;;;;11.07;4.60;;;;;;;;;;5054162;28;20445;-82
2021/10/15 05:17:27;;;;;;;6.65;3.67;;;;;;;;;;5053875;28;20041;-82
2021/10/15 05:19:55;;;;;;;6.47;2.65;;;;;;;;;;5054257;28;20076;-82
2021/10/15 05:22:21;;;;;;;7.25;2.33;;;;;;;;;;5054615;28;20048;-82
2021/10/15 05:24:48;;;;;;;8.18;3.10;;;;;;;;;;5056777;28;20060;-83
2021/10/15 05:27:14;;;;;;;8.90;3.00;;;;;;;;;;5057689;28;20057;-84
2021/10/15 05:29:47;;;;;;;12.82;4.15;;;;;;;;;;5057297;28;20056;-83
2021/10/15 05:32:14;;;;;;;11.95;3.20;;;;;;;;;;5057346;28;20055;-82
2021/10/15 05:34:40;;;;;;;7.70;3.17;;;;;;;;;;5057143;28;20056;-82
2021/10/15 05:37:08;;;;;;;15.70;4.57;;;;;;;;;;5056804;28;20537;-82
2021/10/15 05:39:35;;;;;;;5.22;2.92;;;;;;;;;;5060545;28;20048;-82
2021/10/15 05:42:01;;;;;;;12.35;2.67;;;;;;;;;;5059789;28;20041;-83
2021/10/15 05:44:28;;;;;;;5.90;3.22;;;;;;;;;;5060127;28;20051;-83
2021/10/15 05:46:55;;;;;;;8.38;3.28;;;;;;;;;;5060015;28;20061;-83
2021/10/15 05:49:21;;;;;;;4.57;2.72;;;;;;;;;;5061303;28;20044;-83
2021/10/15 05:51:50;;;;;;;6.05;2.45;;;;;;;;;;5060097;28;20040;-83
2021/10/15 05:54:25;;;;;;;5.85;2.78;;;;;;;;;;5059609;28;20075;-83
2021/10/15 05:59:38;;;;;;;11.63;5.88;;;;;;;;;;5058883;28;20105;-83
2021/10/15 06:02:06;;;;;;;8.02;3.13;;;;;;;;;;5053131;28;20128;-83
2021/10/15 06:15:59;;;;;;;7.20;2.83;;;;;;;;;;5061442;28;20056;-83
2021/10/15 06:18:27;;;;;;;10.65;2.92;;;;;;;;;;5060249;28;20088;-84
2021/10/15 06:20:53;;;;;;;4.97;2.35;;;;;;;;;;5053850;28;20819;-82
2021/10/15 06:23:21;;;;;;;5.15;2.33;;;;;;;;;;5059686;28;20094;-83
2021/10/15 06:26:00;;;;;;;6.22;2.42;;;;;;;;;;5054499;28;20060;-82
2021/10/15 06:28:26;;;;;;;5.70;2.92;;;;;;;;;;5056352;28;20040;-82
2021/10/15 06:30:53;;;;;;;6.78;2.78;;;;;;;;;;5059370;28;20068;-82
2021/10/15 06:33:19;;;;;;;4.13;2.05;;;;;;;;;;5060123;28;20474;-83
2021/10/15 06:35:45;;;;;;;5.38;2.30;;;;;;;;;;5057271;28;20485;-83
2021/10/15 06:38:12;;;;;;;5.15;2.40;;;;;;;;;;5059232;28;20614;-82
2021/10/15 06:40:42;;;;;;;4.20;2.13;;;;;;;;;;5058058;28;20047;-82
2021/10/15 06:43:11;;;;;;;5.18;2.45;;;;;;;;;;5058754;28;20052;-83
2021/10/15 06:45:38;;;;;;;4.75;2.75;;;;;;;;;;5051409;28;20141;-82
2021/10/15 06:48:05;;;;;;;4.95;2.65;;;;;;;;;;5059339;28;20060;-82
2021/10/15 06:50:31;;;;;;;5.15;2.25;;;;;;;;;;5059269;28;20056;-83
2021/10/15 06:52:58;;;;;;;4.30;2.15;;;;;;;;;;5053874;28;20056;-82
2021/10/15 06:55:26;;;;;;;5.53;2.08;;;;;;;;;;5049911;28;20106;-83
2021/10/15 06:57:52;;;;;;;6.20;2.33;;;;;;;;;;5059365;28;20382;-82
2021/10/15 07:00:20;;;;;;;6.95;2.78;;;;;;;;;;5058848;28;20063;-83
2021/10/15 07:02:49;;;;;;;5.97;2.30;;;;;;;;;;5058644;28;20045;-81
2021/10/15 07:05:16;;;;;;;6.28;2.70;;;;;;;;;;5047967;28;20123;-80
2021/10/15 07:07:43;;;;;;;10.98;3.50;;;;;;;;;;5052201;28;20068;-81
2021/10/15 07:10:10;;;;;;;9.07;4.22;;;;;;;;;;5058623;28;20500;-81
2021/10/15 07:12:37;;;;;;;5.20;2.92;;;;;;;;;;5057974;28;20040;-80
2021/10/15 07:15:05;;;;;;;6.05;3.45;;;;;;;;;;5051077;28;20042;-82
2021/10/15 07:17:36;;;;;;;4.78;2.75;;;;;;;;;;5039680;28;20045;-83
2021/10/15 07:20:08;;;;;;;7.97;3.40;;;;;;;;;;5050415;28;20106;-83
2021/10/15 07:22:35;;;;;;;5.63;2.85;;;;;;;;;;5059036;28;20053;-81
2021/10/15 07:25:08;;;;;;;4.65;2.95;;;;;;;;;;5056605;28;20052;-82
2021/10/15 07:27:35;;;;;;;8.65;5.43;;;;;;;;;;5058497;28;20044;-84
2021/10/15 07:30:04;;;;;;;13.40;6.88;;;;;;;;;;5058881;28;20124;-80
2021/10/15 07:32:30;;;;;;;10.75;5.97;;;;;;;;;;5057771;28;20072;-80
2021/10/15 07:34:58;;;;;;;10.23;6.10;;;;;;;;;;5056931;28;20509;-80
2021/10/15 07:37:28;;;;;;;6.32;3.97;;;;;;;;;;5057466;28;20052;-80
2021/10/15 07:39:57;;;;;;;7.65;3.75;;;;;;;;;;5062093;28;20543;-81
2021/10/15 07:42:23;;;;;;;7.07;3.78;;;;;;;;;;5065317;28;20045;-81
2021/10/15 07:44:52;;;;;;;8.07;3.90;;;;;;;;;;5071896;28;20095;-81
2021/10/15 07:47:18;;;;;;;5.18;3.53;;;;;;;;;;5057901;28;20056;-83
2021/10/15 07:49:47;;;;;;;9.27;4.60;;;;;;;;;;5056663;28;20052;-82
2021/10/15 07:52:15;;;;;;;8.07;4.43;;;;;;;;;;5058108;28;20041;-82
2021/10/15 07:54:42;;;;;;;9.82;5.20;;;;;;;;;;5053218;28;20509;-82
2021/10/15 07:57:13;;;;;;;9.82;5.32;;;;;;;;;;5057644;28;20049;-82
2021/10/15 07:59:40;;;;;;;9.65;5.18;;;;;;;;;;5056139;28;20045;-81
2021/10/15 08:02:07;;;;;;;7.03;4.72;;;;;;;;;;5061976;28;20066;-83
2021/10/15 08:04:36;;;;;;;9.43;5.40;;;;;;;;;;5057796;28;20040;-82
2021/10/15 08:07:08;;;;;;;11.00;5.65;;;;;;;;;;5057765;28;20786;-82
2021/10/15 08:09:36;;;;;;;9.35;5.32;;;;;;;;;;5054083;28;20135;-81
2021/10/15 08:12:03;;;;;;;11.25;6.25;;;;;;;;;;5055595;28;20041;-81
2021/10/15 08:14:30;;;;;;;10.57;6.07;;;;;;;;;;5055832;28;20045;-81
2021/10/15 08:16:57;;;;;;;8.05;5.00;;;;;;;;;;5056869;28;20067;-81
2021/10/15 08:19:23;;;;;;;10.27;5.28;;;;;;;;;;5056508;28;20041;-80
2021/10/15 08:21:49;;;;;;;12.02;6.03;;;;;;;;;;5057240;28;20049;-81
2021/10/15 08:24:16;;;;;;;13.48;5.75;;;;;;;;;;5052885;28;20525;-80
2021/10/15 08:26:44;;;;;;;13.50;7.15;;;;;;;;;;5046945;28;20048;-80
2021/10/15 08:29:10;;;;;;;9.25;5.97;;;;;;;;;;5055446;28;20052;-80
2021/10/15 08:31:37;;;;;;;10.90;5.93;;;;;;;;;;5057726;28;20049;-80
2021/10/15 08:34:07;;;;;;;9.38;5.50;;;;;;;;;;5055436;28;20052;-80
2021/10/15 08:36:34;;;;;;;10.48;5.68;;;;;;;;;;5041749;28;20111;-79
2021/10/15 08:39:00;;;;;;;8.88;5.53;;;;;;;;;;5037767;28;20045;-79
2021/10/15 08:41:27;;;;;;;10.23;5.72;;;;;;;;;;5056922;28;20053;-81
2021/10/15 08:43:57;;;;;;;8.98;5.43;;;;;;;;;;5056582;28;20041;-80
2021/10/15 08:46:24;;;;;;;9.10;5.20;;;;;;;;;;5056439;28;20068;-80
2021/10/15 08:48:52;;;;;;;9.65;5.75;;;;;;;;;;5056282;28;20094;-80
2021/10/15 08:51:20;;;;;;;11.82;6.60;;;;;;;;;;5056012;28;20064;-79
2021/10/15 08:53:48;;;;;;;11.82;6.30;;;;;;;;;;5050268;28;20044;-81
2021/10/15 08:56:17;;;;;;;9.65;6.20;;;;;;;;;;5053922;28;20048;-83
2021/10/15 08:58:51;;;;;;;11.38;6.75;;;;;;;;;;5053122;28;20045;-83
2021/10/15 09:01:21;;;;;;;10.35;6.70;;;;;;;;;;5051275;28;20037;-82
2021/10/15 09:03:48;;;;;;;10.30;6.57;;;;;;;;;;5053380;28;20049;-83
2021/10/15 09:06:16;;;;;;;11.63;7.28;;;;;;;;;;5055744;28;20052;-82
2021/10/15 09:08:48;;;;;;;12.30;6.55;;;;;;;;;;5056100;28;20048;-83
2021/10/15 09:11:29;;;;;;;13.30;7.38;;;;;;;;;;5055713;28;20072;-83
2021/10/15 09:14:09;;;;;;;11.35;7.60;;;;;;;;;;5059022;28;20076;-82
2021/10/15 09:16:53;;;;;;;14.73;7.07;;;;;;;;;;5049709;28;20103;-81
2021/10/15 09:19:25;;;;;;;15.70;8.65;;;;;;;;;;5044253;28;20116;-80
2021/10/15 09:22:10;;;;;;;14.75;8.20;;;;;;;;;;5048914;28;20048;-81
2021/10/15 09:24:39;;;;;;;12.88;8.52;;;;;;;;;;5048947;28;20052;-81
2021/10/15 09:27:19;;;;;;;12.70;8.30;;;;;;;;;;5060793;28;20041;-82
2021/10/15 09:29:48;;;;;;;16.65;8.93;;;;;;;;;;5060897;28;20056;-82
2021/10/15 09:32:16;;;;;;;15.88;8.60;;;;;;;;;;5059959;28;20043;-82
2021/10/15 09:34:44;;;;;;;15.68;8.20;;;;;;;;;;5058986;28;20051;-81
2021/10/15 09:37:15;;;;;;;14.80;8.90;;;;;;;;;;5061089;28;20052;-81
2021/10/15 09:39:42;;;;;;;17.92;9.88;;;;;;;;;;5060391;28;20049;-81
2021/10/15 09:42:19;;;;;;;14.98;9.00;;;;;;;;;;5060732;28;20048;-81
2021/10/15 09:44:47;;;;;;;15.20;9.75;;;;;;;;;;5058457;28;20056;-81
2021/10/15 09:47:17;;;;;;;15.23;10.07;;;;;;;;;;5061068;28;20053;-81
2021/10/15 09:49:48;;;;;;;12.98;9.20;;;;;;;;;;5061398;28;20041;-82
2021/10/15 09:52:23;;;;;;;15.60;8.55;;;;;;;;;;5058527;28;20077;-81
2021/10/15 09:54:55;;;;;;;14.93;8.95;;;;;;;;;;5052173;28;20077;-81
2021/10/15 09:57:28;;;;;;;16.05;10.02;;;;;;;;;;5058240;28;20041;-81
2021/10/15 09:59:57;;;;;;;12.63;8.18;;;;;;;;;;5059564;28;20075;-80
2021/10/15 10:02:26;;;;;;;15.82;9.15;;;;;;;;;;5059928;28;20041;-81
2021/10/15 10:04:53;;;;;;;15.52;9.25;;;;;;;;;;5057325;28;20044;-80
2021/10/15 10:07:21;;;;;;;14.73;9.32;;;;;;;;;;5059412;28;20088;-81
2021/10/15 10:09:47;;;;;;;16.38;9.35;;;;;;;;;;5059774;28;20048;-80
2021/10/15 10:12:14;;;;;;;13.75;8.88;;;;;;;;;;5059534;28;20048;-81
2021/10/15 10:14:45;;;;;;;14.80;9.68;;;;;;;;;;5060251;28;20044;-82
2021/10/15 10:17:23;;;;;;;14.48;9.13;;;;;;;;;;5060101;28;20052;-81
2021/10/15 10:19:55;;;;;;;14.35;9.65;;;;;;;;;;5041815;28;20053;-81
2021/10/15 10:22:23;;;;;;;13.38;9.30;;;;;;;;;;5059087;28;20073;-79
2021/10/15 10:24:52;;;;;;;16.55;10.18;;;;;;;;;;5057453;28;20053;-81
2021/10/15 10:27:30;;;;;;;15.15;9.18;;;;;;;;;;5060105;28;20048;-82
2021/10/15 10:29:57;;;;;;;12.52;8.25;;;;;;;;;;5061781;28;20045;-83
2021/10/15 10:32:27;;;;;;;17.17;9.13;;;;;;;;;;5061982;28;20472;-83
2021/10/15 10:35:25;;;;;;;17.60;10.35;;;;;;;;;;5062032;28;20426;-81
2021/10/15 10:38:27;;;;;;;12.57;8.73;;;;;;;;;;5058935;28;20103;-81
2021/10/15 10:41:32;;;;;;;15.73;9.45;;;;;;;;;;5057729;28;20060;-80
2021/10/15 10:44:12;;;;;;;14.23;9.77;;;;;;;;;;5057947;28;20079;-80
2021/10/15 10:46:39;;;;;;;13.07;8.60;;;;;;;;;;5057982;28;20456;-80
2021/10/15 10:49:19;;;;;;;14.93;9.48;;;;;;;;;;5058917;28;20053;-80
2021/10/15 10:52:11;;;;;;;13.77;8.77;;;;;;;;;;5058573;28;20056;-82
2021/10/15 10:54:38;;;;;;;12.50;8.20;;;;;;;;;;5055863;28;20481;-82
2021/10/15 10:57:19;;;;;;;12.60;8.05;;;;;;;;;;5057123;28;20040;-79
2021/10/15 10:59:46;;;;;;;11.90;7.88;;;;;;;;;;5058816;28;20052;-80
2021/10/15 11:02:18;;;;;;;10.60;7.68;;;;;;;;;;5058664;28;20045;-81
2021/10/15 11:05:00;;;;;;;14.05;8.15;;;;;;;;;;5058241;28;20037;-81
2021/10/15 11:07:31;;;;;;;12.10;7.95;;;;;;;;;;5056305;28;20059;-81
2021/10/15 11:10:00;;;;;;;11.07;7.70;;;;;;;;;;5060040;28;20056;-81
2021/10/15 11:13:00;;;;;;;12.18;8.13;;;;;;;;;;5062937;28;20041;-81
2021/10/15 11:15:31;;;;;;;10.50;7.07;;;;;;;;;;5049542;28;20060;-81
2021/10/15 11:17:58;;;;;;;10.73;7.60;;;;;;;;;;5058834;28;20476;-81
2021/10/15 11:20:27;;;;;;;12.00;7.85;;;;;;;;;;5059039;28;20494;-82
2021/10/15 11:22:56;;;;;;;18.20;8.38;;;;;;;;;;5056615;28;20045;-81
2021/10/15 11:25:25;;;;;;;12.05;8.00;;;;;;;;;;5057515;28;20413;-80
2021/10/15 11:27:53;;;;;;;13.25;8.68;;;;;;;;;;5058193;28;20045;-81
2021/10/15 11:30:20;;;;;;;12.57;8.10;;;;;;;;;;5059738;28;20041;-81
2021/10/15 11:32:51;;;;;;;10.55;7.80;;;;;;;;;;5060298;28;20045;-81
2021/10/15 11:35:24;;;;;;;13.55;8.30;;;;;;;;;;5056909;28;20049;-81
2021/10/15 11:37:55;;;;;;;9.80;7.18;;;;;;;;;;5058944;28;20047;-81
2021/10/15 11:40:25;;;;;;;10.85;7.28;;;;;;;;;;5059173;28;20040;-81
2021/10/15 11:42:52;;;;;;;11.18;7.35;;;;;;;;;;5044559;28;20045;-81
2021/10/15 11:45:29;;;;;;;11.70;7.95;;;;;;;;;;5056158;28;20092;-80
2021/10/15 11:48:08;;;;;;;10.70;7.45;;;;;;;;;;5057594;28;20045;-81
2021/10/15 11:50:38;;;;;;;12.48;8.45;;;;;;;;;;5046896;28;20482;-82
2021/10/15 11:53:08;;;;;;;14.15;7.82;;;;;;;;;;5059607;28;20493;-83
2021/10/15 11:55:39;;;;;;;11.63;7.45;;;;;;;;;;5059758;28;20492;-83
2021/10/15 11:58:29;;;;;;;11.90;7.38;;;;;;;;;;5058758;28;20116;-82
2021/10/15 12:00:58;;;;;;;9.45;7.07;;;;;;;;;;5058037;28;20395;-81
2021/10/15 12:03:26;;;;;;;9.35;6.35;;;;;;;;;;5049151;28;20037;-81
2021/10/15 12:05:53;;;;;;;9.60;6.70;;;;;;;;;;5052552;28;20409;-83
2021/10/15 12:08:21;;;;;;;10.18;6.63;;;;;;;;;;5059022;28;20040;-82
2021/10/15 12:10:48;;;;;;;9.75;5.97;;;;;;;;;;5059142;28;20052;-82
2021/10/15 12:13:15;;;;;;;9.13;5.78;;;;;;;;;;5054835;28;20057;-83
2021/10/15 12:15:41;;;;;;;11.40;6.10;;;;;;;;;;5052466;28;20048;-82
2021/10/15 12:18:08;;;;;;;9.40;6.53;;;;;;;;;;5057943;28;20053;-82
2021/10/15 12:20:35;;;;;;;7.63;5.88;;;;;;;;;;5058280;28;20063;-82
2021/10/15 12:23:05;;;;;;;9.65;6.82;;;;;;;;;;5057701;28;20448;-81
2021/10/15 12:25:35;;;;;;;10.35;6.32;;;;;;;;;;5055717;28;20374;-81
2021/10/15 12:28:14;;;;;;;9.40;5.85;;;;;;;;;;5057154;28;20055;-81
2021/10/15 12:30:43;;;;;;;8.63;5.70;;;;;;;;;;5056647;28;20120;-81
2021/10/15 12:33:15;;;;;;;8.93;5.43;;;;;;;;;;5065726;28;20174;-80
2021/10/15 12:35:42;;;;;;;13.35;5.95;;;;;;;;;;5058100;28;20049;-83
2021/10/15 12:38:10;;;;;;;8.70;5.80;;;;;;;;;;5057760;28;20560;-82
2021/10/15 12:40:40;;;;;;;8.80;5.90;;;;;;;;;;5058448;28;20401;-82
2021/10/15 12:43:10;;;;;;;9.85;5.78;;;;;;;;;;5059048;28;20151;-82
2021/10/15 12:45:38;;;;;;;7.68;5.38;;;;;;;;;;5046061;28;20073;-83
2021/10/15 12:48:07;;;;;;;14.35;6.63;;;;;;;;;;5043681;28;20044;-83
2021/10/15 12:50:35;;;;;;;9.05;4.88;;;;;;;;;;5062737;28;20045;-82
2021/10/15 12:53:13;;;;;;;7.15;5.13;;;;;;;;;;5063314;28;20448;-82
2021/10/15 12:55:49;;;;;;;8.35;5.35;;;;;;;;;;5059129;28;20049;-82
2021/10/15 12:58:16;;;;;;;6.95;4.80;;;;;;;;;;5059965;28;20045;-82
2021/10/15 13:00:50;;;;;;;6.53;5.15;;;;;;;;;;5060248;28;20044;-82
2021/10/15 13:03:17;;;;;;;8.32;4.97;;;;;;;;;;5060153;28;20049;-82
2021/10/15 13:05:44;;;;;;;7.05;4.65;;;;;;;;;;5059110;28;20048;-82
2021/10/15 13:08:10;;;;;;;8.82;5.38;;;;;;;;;;5060540;28;20044;-82
2021/10/15 13:10:37;;;;;;;8.85;5.57;;;;;;;;;;5060359;28;20041;-82
2021/10/15 13:13:05;;;;;;;9.05;5.53;;;;;;;;;;5061773;28;20466;-81
2021/10/15 13:15:31;;;;;;;8.52;5.15;;;;;;;;;;5057015;28;20123;-82
2021/10/15 13:17:58;;;;;;;7.57;5.22;;;;;;;;;;5043402;28;20055;-82
2021/10/15 13:20:26;;;;;;;6.65;4.28;;;;;;;;;;5040954;28;20046;-82
2021/10/15 13:22:54;;;;;;;7.32;4.35;;;;;;;;;;5051418;28;20457;-82
2021/10/15 13:25:21;;;;;;;6.28;4.03;;;;;;;;;;5053835;28;20076;-82
2021/10/15 13:27:48;;;;;;;7.50;5.10;;;;;;;;;;5044430;28;20056;-82
2021/10/15 13:30:16;;;;;;;6.93;4.50;;;;;;;;;;5047398;28;20045;-82
2021/10/15 13:32:42;;;;;;;6.50;4.65;;;;;;;;;;5066388;28;20053;-81
2021/10/15 13:35:09;;;;;;;6.65;4.85;;;;;;;;;;5059107;28;20091;-83
2021/10/15 13:37:38;;;;;;;6.57;5.22;;;;;;;;;;5072232;28;20049;-83
2021/10/15 13:40:07;;;;;;;7.43;5.20;;;;;;;;;;5069510;28;20049;-82
2021/10/15 13:42:49;;;;;;;7.72;4.35;;;;;;;;;;5059687;28;20056;-82
2021/10/15 13:50:47;;;;;;;7.70;5.00;;;;;;;;;;5060048;28;20051;-83
2021/10/15 13:53:14;;;;;;;6.25;4.32;;;;;;;;;;5057535;28;20053;-82
2021/10/15 13:55:49;;;;;;;6.68;4.78;;;;;;;;;;5054101;28;20045;-80
2021/10/15 13:58:20;;;;;;;7.30;5.55;;;;;;;;;;5056589;28;20110;-80
2021/10/15 14:00:50;;;;;;;7.20;4.65;;;;;;;;;;5055610;28;20059;-80
2021/10/15 14:06:00;;;;;;;7.40;4.97;;;;;;;;;;5016315;28;20122;-81
2021/10/15 14:08:26;;;;;;;7.63;5.22;;;;;;;;;;5057948;28;20041;-79
2021/10/15 14:10:54;;;;;;;7.05;4.60;;;;;;;;;;5059217;28;20049;-81
2021/10/15 14:13:21;;;;;;;7.95;5.13;;;;;;;;;;5057372;28;20041;-80
2021/10/15 14:15:49;;;;;;;6.95;4.75;;;;;;;;;;5057021;28;20077;-81
2021/10/15 14:18:21;;;;;;;5.25;4.15;;;;;;;;;;5055995;28;20211;-81
2021/10/15 14:20:47;;;;;;;6.35;4.07;;;;;;;;;;5058185;28;20561;-83
2021/10/15 14:23:13;;;;;;;5.75;4.40;;;;;;;;;;5057787;28;20106;-82
2021/10/15 14:25:40;;;;;;;6.78;3.88;;;;;;;;;;5055930;28;20532;-82
2021/10/15 14:28:11;;;;;;;9.45;4.35;;;;;;;;;;5059826;28;20037;-82
2021/10/15 14:30:37;;;;;;;6.78;3.88;;;;;;;;;;5059337;28;20056;-82
2021/10/15 14:33:05;;;;;;;5.70;3.78;;;;;;;;;;5059313;28;20048;-82
2021/10/15 14:35:31;;;;;;;5.55;4.13;;;;;;;;;;5058162;28;20041;-81
2021/10/15 14:37:58;;;;;;;6.80;3.58;;;;;;;;;;5060677;28;20056;-82
2021/10/15 14:40:24;;;;;;;5.93;3.67;;;;;;;;;;5064321;28;20060;-83
2021/10/15 14:42:51;;;;;;;6.30;4.20;;;;;;;;;;5065157;28;20068;-82
2021/10/15 14:45:18;;;;;;;5.43;3.47;;;;;;;;;;5061141;28;20051;-81
2021/10/15 14:47:44;;;;;;;7.15;3.63;;;;;;;;;;5062622;28;20037;-82
2021/10/15 14:50:12;;;;;;;10.40;3.88;;;;;;;;;;5061751;28;20052;-82
2021/10/15 14:52:39;;;;;;;5.55;3.22;;;;;;;;;;5060505;28;20044;-83
2021/10/15 14:55:06;;;;;;;4.40;2.95;;;;;;;;;;5058201;28;20049;-82
2021/10/15 14:57:37;;;;;;;6.07;3.17;;;;;;;;;;5058989;28;20040;-80
2021/10/15 15:00:05;;;;;;;5.82;3.28;;;;;;;;;;5057734;28;20041;-80
2021/10/15 15:02:32;;;;;;;6.97;3.38;;;;;;;;;;5057658;28;20095;-80
2021/10/15 15:04:59;;;;;;;5.45;3.30;;;;;;;;;;5056999;28;20115;-80
2021/10/15 15:07:26;;;;;;;8.50;4.57;;;;;;;;;;5058352;28;20041;-80
2021/10/15 15:09:53;;;;;;;5.72;3.25;;;;;;;;;;5058081;28;20060;-79
2021/10/15 15:12:19;;;;;;;8.07;3.40;;;;;;;;;;5054877;28;20041;-80